Time;durP1;ratioP1;P1;durP2;ratioP2;P2;SDS_P1;SDS_P2;PMS_P1;PMS_P2;Temp;Humidity;BMP_temperature;BMP_pressure;BME280_temperature;BME280_humidity;BME280_pressure;Samples;Min_cycle;Max_cycle;Signal;HPM_P1;HPM_P2
2023/01/10 00:00:23;;;;;;;10.75;2.80;;;;;;;;;;5086935;28;20502;-74
2023/01/10 00:02:50;;;;;;;12.55;2.40;;;;;;;;;;5085400;28;20051;-71
2023/01/10 00:05:16;;;;;;;14.48;2.50;;;;;;;;;;5088094;28;20517;-71
2023/01/10 00:07:43;;;;;;;9.80;2.78;;;;;;;;;;5086828;28;20095;-74
2023/01/10 00:10:09;;;;;;;18.00;3.22;;;;;;;;;;5098275;28;20055;-74
2023/01/10 00:15:21;;;;;;;9.20;1.90;;;;;;;;;;5085626;28;20533;-74
2023/01/10 00:17:47;;;;;;;8.35;2.17;;;;;;;;;;5084379;28;20053;-74
2023/01/10 00:20:14;;;;;;;10.07;2.60;;;;;;;;;;5083919;28;20060;-74
2023/01/10 00:22:40;;;;;;;15.80;2.58;;;;;;;;;;5089115;28;20056;-71
2023/01/10 00:25:06;;;;;;;10.57;2.72;;;;;;;;;;5085296;28;20548;-75
2023/01/10 00:27:34;;;;;;;11.18;2.50;;;;;;;;;;5086880;28;20135;-74
2023/01/10 00:30:09;;;;;;;7.03;1.67;;;;;;;;;;5089915;28;20055;-75
2023/01/10 00:32:36;;;;;;;13.05;2.47;;;;;;;;;;5089343;28;20052;-74
2023/01/10 00:35:05;;;;;;;19.73;2.92;;;;;;;;;;5088943;28;20045;-75
2023/01/10 00:37:31;;;;;;;10.13;2.03;;;;;;;;;;5090888;28;20048;-76
2023/01/10 00:39:58;;;;;;;13.00;3.50;;;;;;;;;;5088312;28;20139;-73
2023/01/10 00:45:10;;;;;;;13.02;3.00;;;;;;;;;;5088726;28;20139;-75
2023/01/10 00:47:37;;;;;;;11.55;2.45;;;;;;;;;;5082621;28;20089;-75
2023/01/10 00:50:07;;;;;;;10.77;2.47;;;;;;;;;;5089257;28;20055;-74
2023/01/10 00:52:33;;;;;;;9.45;2.40;;;;;;;;;;5087816;28;20191;-75
2023/01/10 00:55:00;;;;;;;15.10;2.38;;;;;;;;;;5088952;28;20581;-72
2023/01/10 00:57:26;;;;;;;13.63;2.38;;;;;;;;;;5087963;28;20490;-75
2023/01/10 00:59:52;;;;;;;22.88;3.30;;;;;;;;;;5093123;28;20053;-74
2023/01/10 01:02:19;;;;;;;20.73;3.58;;;;;;;;;;5086777;28;20495;-73
2023/01/10 01:04:45;;;;;;;11.30;2.38;;;;;;;;;;5088722;28;20057;-74
2023/01/10 01:07:12;;;;;;;15.93;2.55;;;;;;;;;;5088630;28;20131;-75
2023/01/10 01:10:25;;;;;;;16.35;2.75;;;;;;;;;;5088165;28;20052;-71
2023/01/10 01:12:24;;;;;;;10.05;2.13;;;;;;;;;;5086266;28;20136;-72
2023/01/10 01:14:51;;;;;;;22.98;2.80;;;;;;;;;;5087471;28;20072;-73
2023/01/10 01:17:17;;;;;;;10.32;2.03;;;;;;;;;;5085048;28;20045;-74
2023/01/10 01:19:44;;;;;;;16.58;2.38;;;;;;;;;;5084495;28;20060;-73
2023/01/10 01:22:10;;;;;;;14.93;2.33;;;;;;;;;;5088173;28;20045;-71
2023/01/10 01:24:38;;;;;;;10.15;2.08;;;;;;;;;;5085418;28;20056;-74
2023/01/10 01:27:04;;;;;;;17.95;2.78;;;;;;;;;;5088611;28;20057;-74
2023/01/10 01:29:31;;;;;;;15.68;2.25;;;;;;;;;;5088816;28;20490;-74
2023/01/10 01:32:08;;;;;;;14.27;2.20;;;;;;;;;;5086931;28;20052;-74
2023/01/10 01:34:34;;;;;;;9.45;1.65;;;;;;;;;;5087498;28;20045;-75
2023/01/10 01:37:01;;;;;;;10.50;2.33;;;;;;;;;;5086052;28;20056;-74
2023/01/10 01:39:27;;;;;;;13.38;2.10;;;;;;;;;;5085007;28;20060;-75
2023/01/10 01:41:56;;;;;;;17.38;2.47;;;;;;;;;;5088381;28;20044;-74
2023/01/10 01:44:23;;;;;;;13.82;2.10;;;;;;;;;;5086459;28;20052;-73
2023/01/10 01:47:01;;;;;;;15.80;2.42;;;;;;;;;;5085399;28;20114;-75
2023/01/10 01:49:29;;;;;;;12.50;2.70;;;;;;;;;;5087996;28;20524;-74
2023/01/10 01:51:58;;;;;;;15.80;2.55;;;;;;;;;;5085852;28;20127;-74
2023/01/10 01:54:25;;;;;;;11.35;2.05;;;;;;;;;;5087593;28;20055;-73
2023/01/10 01:56:57;;;;;;;16.25;2.58;;;;;;;;;;5087126;28;20155;-73
2023/01/10 01:59:26;;;;;;;14.77;2.95;;;;;;;;;;5089530;28;20523;-74
2023/01/10 02:01:55;;;;;;;11.95;3.38;;;;;;;;;;5085385;28;20522;-73
2023/01/10 02:04:25;;;;;;;13.20;2.42;;;;;;;;;;5083850;28;20049;-72
2023/01/10 02:06:54;;;;;;;10.68;2.40;;;;;;;;;;5083566;28;20053;-76
2023/01/10 02:09:33;;;;;;;15.75;3.25;;;;;;;;;;5087375;28;20052;-73
2023/01/10 02:12:00;;;;;;;20.80;2.85;;;;;;;;;;5079142;28;20102;-75
2023/01/10 02:14:27;;;;;;;21.90;2.75;;;;;;;;;;5087170;28;20047;-74
2023/01/10 02:16:53;;;;;;;13.82;2.25;;;;;;;;;;5084991;28;20053;-75
2023/01/10 02:19:26;;;;;;;10.32;1.83;;;;;;;;;;5084865;28;20080;-74
2023/01/10 02:22:11;;;;;;;16.83;3.53;;;;;;;;;;5087368;28;20503;-75
2023/01/10 02:25:10;;;;;;;13.65;2.22;;;;;;;;;;5085472;28;20044;-74
2023/01/10 02:27:50;;;;;;;12.60;1.95;;;;;;;;;;4980150;28;20076;-74
2023/01/10 02:30:35;;;;;;;8.38;2.13;;;;;;;;;;4982973;28;20485;-74
2023/01/10 02:33:08;;;;;;;15.57;2.77;;;;;;;;;;4967451;28;20150;-74
2023/01/10 02:35:41;;;;;;;12.30;2.80;;;;;;;;;;4969861;28;20575;-75
2023/01/10 02:38:12;;;;;;;13.48;2.60;;;;;;;;;;4981114;28;20654;-74
2023/01/10 02:40:57;;;;;;;16.15;2.95;;;;;;;;;;4970367;28;20078;-76
2023/01/10 02:43:28;;;;;;;14.90;2.17;;;;;;;;;;4963171;28;20131;-71
2023/01/10 02:45:58;;;;;;;13.40;1.98;;;;;;;;;;4990578;28;20050;-75
2023/01/10 02:48:25;;;;;;;16.83;2.58;;;;;;;;;;4983731;28;20054;-75
2023/01/10 02:51:01;;;;;;;12.45;3.03;;;;;;;;;;4980310;28;20054;-73
2023/01/10 02:53:32;;;;;;;10.00;2.28;;;;;;;;;;4976095;28;20054;-75
2023/01/10 02:55:59;;;;;;;11.23;1.85;;;;;;;;;;4966203;28;20058;-75
2023/01/10 02:58:44;;;;;;;13.48;1.95;;;;;;;;;;4973732;28;20056;-75
2023/01/10 03:01:34;;;;;;;15.43;3.20;;;;;;;;;;4975162;28;20059;-74
2023/01/10 03:04:11;;;;;;;13.15;2.40;;;;;;;;;;5068197;28;20044;-73
2023/01/10 03:06:51;;;;;;;19.77;3.03;;;;;;;;;;5085694;28;20084;-74
2023/01/10 03:09:23;;;;;;;10.30;2.08;;;;;;;;;;5085411;28;20056;-74
2023/01/10 03:11:52;;;;;;;15.18;2.88;;;;;;;;;;5086889;28;20598;-74
2023/01/10 03:14:23;;;;;;;16.50;2.63;;;;;;;;;;5086170;28;20103;-74
2023/01/10 03:16:56;;;;;;;17.83;2.13;;;;;;;;;;5085645;28;20505;-74
2023/01/10 03:19:25;;;;;;;9.18;2.53;;;;;;;;;;5084968;28;20549;-72
2023/01/10 03:21:53;;;;;;;6.88;2.00;;;;;;;;;;5086211;28;20060;-76
2023/01/10 03:24:25;;;;;;;13.00;2.38;;;;;;;;;;5066812;28;20049;-75
2023/01/10 03:26:54;;;;;;;21.00;3.05;;;;;;;;;;5087934;28;20096;-71
2023/01/10 03:29:24;;;;;;;16.52;3.15;;;;;;;;;;5085364;28;20991;-75
2023/01/10 03:31:54;;;;;;;15.43;2.90;;;;;;;;;;5085965;28;20091;-74
2023/01/10 03:34:21;;;;;;;17.95;2.70;;;;;;;;;;5085963;28;20432;-73
2023/01/10 03:36:47;;;;;;;12.43;2.33;;;;;;;;;;5085853;28;20053;-77
2023/01/10 03:39:20;;;;;;;12.63;2.20;;;;;;;;;;5086046;28;20631;-77
2023/01/10 03:41:49;;;;;;;15.30;2.72;;;;;;;;;;5085414;28;20505;-75
2023/01/10 03:47:09;;;;;;;21.50;3.47;;;;;;;;;;5084707;28;20152;-75
2023/01/10 03:49:37;;;;;;;11.45;2.85;;;;;;;;;;5085939;28;20528;-76
2023/01/10 03:52:04;;;;;;;12.65;2.25;;;;;;;;;;5085301;28;20132;-75
2023/01/10 03:54:30;;;;;;;13.93;2.72;;;;;;;;;;5085951;28;20135;-75
2023/01/10 03:56:57;;;;;;;10.13;3.05;;;;;;;;;;5086273;28;20076;-75
2023/01/10 03:59:24;;;;;;;14.98;2.45;;;;;;;;;;5087774;28;20044;-72
2023/01/10 04:01:51;;;;;;;15.40;3.05;;;;;;;;;;5087453;28;20152;-74
2023/01/10 04:04:17;;;;;;;15.80;3.53;;;;;;;;;;5088162;28;20048;-74
2023/01/10 04:06:44;;;;;;;9.07;3.08;;;;;;;;;;5087761;28;20083;-75
2023/01/10 04:09:10;;;;;;;15.27;3.10;;;;;;;;;;5088261;28;20075;-74
2023/01/10 04:11:37;;;;;;;23.58;3.38;;;;;;;;;;5071930;28;20078;-74
2023/01/10 04:14:04;;;;;;;16.45;3.38;;;;;;;;;;5089918;28;20083;-74
2023/01/10 04:16:30;;;;;;;10.85;2.15;;;;;;;;;;5087048;28;20607;-75
2023/01/10 04:18:56;;;;;;;24.55;2.92;;;;;;;;;;5089396;28;20572;-72
2023/01/10 04:21:23;;;;;;;15.05;2.60;;;;;;;;;;5088581;28;20079;-74
2023/01/10 04:23:49;;;;;;;13.00;2.33;;;;;;;;;;5089101;28;20128;-74
2023/01/10 04:26:15;;;;;;;18.05;2.95;;;;;;;;;;5088574;28;20135;-74
2023/01/10 04:28:41;;;;;;;16.90;3.30;;;;;;;;;;5088218;28;20053;-74
2023/01/10 04:31:08;;;;;;;19.80;3.75;;;;;;;;;;5089602;28;20049;-74
2023/01/10 04:33:34;;;;;;;28.13;5.38;;;;;;;;;;5089063;28;20118;-73
2023/01/10 04:36:00;;;;;;;15.98;3.22;;;;;;;;;;5088979;28;20524;-74
2023/01/10 04:38:27;;;;;;;24.55;3.67;;;;;;;;;;5071364;28;20044;-74
2023/01/10 04:40:54;;;;;;;20.65;3.15;;;;;;;;;;5087985;28;20053;-75
2023/01/10 04:43:21;;;;;;;18.80;3.97;;;;;;;;;;5089267;28;20606;-74
2023/01/10 04:45:47;;;;;;;17.20;2.97;;;;;;;;;;5084996;28;20056;-74
2023/01/10 04:48:13;;;;;;;17.00;2.72;;;;;;;;;;5086024;28;20135;-74
2023/01/10 04:50:40;;;;;;;16.60;3.92;;;;;;;;;;5089518;28;20048;-72
2023/01/10 04:53:06;;;;;;;26.70;4.30;;;;;;;;;;5087090;28;20139;-74
2023/01/10 04:55:33;;;;;;;22.38;3.10;;;;;;;;;;5087642;28;20059;-74
2023/01/10 04:58:00;;;;;;;24.35;2.90;;;;;;;;;;5092786;28;20125;-75
2023/01/10 05:00:27;;;;;;;21.40;3.83;;;;;;;;;;5090194;28;20052;-71
2023/01/10 05:02:56;;;;;;;13.77;2.67;;;;;;;;;;5087341;28;20056;-74
2023/01/10 05:05:23;;;;;;;16.42;3.58;;;;;;;;;;5089756;28;20071;-74
2023/01/10 05:07:49;;;;;;;21.42;3.65;;;;;;;;;;5088124;28;20048;-73
2023/01/10 05:10:16;;;;;;;15.48;3.05;;;;;;;;;;5088125;28;20053;-74
2023/01/10 05:12:42;;;;;;;28.95;5.88;;;;;;;;;;5089593;28;20055;-75
2023/01/10 05:15:09;;;;;;;18.00;3.15;;;;;;;;;;5088765;28;20426;-74
2023/01/10 05:17:35;;;;;;;11.93;3.42;;;;;;;;;;5088227;28;20572;-74
2023/01/10 05:20:01;;;;;;;21.40;3.42;;;;;;;;;;5089044;28;20052;-74
2023/01/10 05:22:28;;;;;;;20.02;3.67;;;;;;;;;;5087989;28;20507;-72
2023/01/10 05:24:54;;;;;;;17.52;2.50;;;;;;;;;;5088647;28;20542;-75
2023/01/10 05:27:20;;;;;;;18.80;4.50;;;;;;;;;;5088364;28;20053;-74
2023/01/10 05:29:47;;;;;;;21.30;3.97;;;;;;;;;;5088162;28;20518;-72
2023/01/10 05:32:13;;;;;;;19.05;3.97;;;;;;;;;;5088178;28;20049;-74
2023/01/10 05:34:40;;;;;;;32.08;3.67;;;;;;;;;;5089371;28;20053;-73
2023/01/10 05:37:06;;;;;;;24.10;4.35;;;;;;;;;;5087781;28;20051;-74
2023/01/10 05:39:32;;;;;;;14.77;3.25;;;;;;;;;;5089155;28;20049;-75
2023/01/10 05:41:59;;;;;;;17.98;3.53;;;;;;;;;;5087155;28;20048;-74
2023/01/10 05:44:25;;;;;;;21.80;3.78;;;;;;;;;;5087945;28;20071;-73
2023/01/10 05:46:52;;;;;;;17.30;3.20;;;;;;;;;;5086855;28;20063;-74
2023/01/10 05:49:18;;;;;;;19.33;2.75;;;;;;;;;;5088113;28;20080;-74
2023/01/10 05:51:44;;;;;;;10.90;3.00;;;;;;;;;;5087548;28;20518;-71
2023/01/10 05:54:10;;;;;;;21.13;3.30;;;;;;;;;;5085980;28;20053;-74
2023/01/10 05:56:37;;;;;;;21.60;3.10;;;;;;;;;;5086287;28;20048;-75
2023/01/10 05:59:04;;;;;;;19.63;3.92;;;;;;;;;;5087103;28;20048;-73
2023/01/10 06:01:42;;;;;;;16.73;3.25;;;;;;;;;;5085950;28;20522;-74
2023/01/10 06:04:08;;;;;;;16.08;2.90;;;;;;;;;;5088869;28;20527;-74
2023/01/10 06:06:35;;;;;;;17.10;3.15;;;;;;;;;;5084097;28;20052;-73
2023/01/10 06:09:01;;;;;;;14.35;2.85;;;;;;;;;;5068519;28;20060;-75
2023/01/10 06:11:28;;;;;;;9.43;3.25;;;;;;;;;;5079035;28;20495;-73
2023/01/10 06:13:58;;;;;;;18.83;3.33;;;;;;;;;;5087735;28;20052;-73
2023/01/10 06:16:24;;;;;;;16.80;3.08;;;;;;;;;;5086191;28;20397;-70
2023/01/10 06:18:50;;;;;;;19.65;3.40;;;;;;;;;;5088278;28;20093;-74
2023/01/10 06:21:16;;;;;;;28.95;4.22;;;;;;;;;;5086524;28;20106;-73
2023/01/10 06:23:43;;;;;;;11.05;3.17;;;;;;;;;;5087599;28;20040;-73
2023/01/10 06:26:09;;;;;;;22.98;3.83;;;;;;;;;;5087391;28;20044;-74
2023/01/10 06:28:35;;;;;;;25.35;3.65;;;;;;;;;;5087497;28;20485;-74
2023/01/10 06:31:02;;;;;;;19.52;3.97;;;;;;;;;;5079524;28;20619;-74
2023/01/10 06:33:28;;;;;;;12.63;3.08;;;;;;;;;;5085772;28;22019;-74
2023/01/10 06:35:54;;;;;;;15.13;3.17;;;;;;;;;;5086855;28;20114;-72
2023/01/10 06:38:21;;;;;;;21.30;3.50;;;;;;;;;;5088190;28;20052;-74
2023/01/10 06:40:47;;;;;;;20.65;3.72;;;;;;;;;;5085967;28;20055;-74
2023/01/10 06:43:13;;;;;;;22.88;3.47;;;;;;;;;;5087899;28;20051;-71
2023/01/10 06:45:40;;;;;;;19.70;3.50;;;;;;;;;;5087135;28;20057;-75
2023/01/10 06:48:06;;;;;;;27.00;5.22;;;;;;;;;;5087375;28;20486;-74
2023/01/10 06:50:32;;;;;;;18.30;3.63;;;;;;;;;;5084527;28;20061;-72
2023/01/10 06:53:00;;;;;;;28.38;4.60;;;;;;;;;;5087500;28;20521;-74
2023/01/10 06:55:26;;;;;;;21.08;3.70;;;;;;;;;;5084051;28;20055;-74
2023/01/10 06:57:53;;;;;;;17.38;3.67;;;;;;;;;;5086394;28;20044;-73
2023/01/10 07:00:20;;;;;;;18.38;3.95;;;;;;;;;;5085008;28;20745;-75
2023/01/10 07:02:46;;;;;;;17.80;3.67;;;;;;;;;;5080632;28;20051;-71
2023/01/10 07:05:13;;;;;;;22.92;3.72;;;;;;;;;;5082690;28;20049;-71
2023/01/10 07:07:39;;;;;;;28.88;4.72;;;;;;;;;;5071924;28;20049;-75
2023/01/10 07:10:06;;;;;;;23.85;4.68;;;;;;;;;;5080701;28;20089;-75
2023/01/10 07:12:32;;;;;;;23.50;3.67;;;;;;;;;;5083957;28;20049;-74
2023/01/10 07:14:58;;;;;;;20.85;4.93;;;;;;;;;;5083658;28;20139;-75
2023/01/10 07:17:25;;;;;;;19.75;3.72;;;;;;;;;;5083169;28;20512;-72
2023/01/10 07:19:51;;;;;;;12.57;3.17;;;;;;;;;;5080113;28;20055;-73
2023/01/10 07:22:17;;;;;;;25.02;3.53;;;;;;;;;;5078898;28;20049;-74
2023/01/10 07:24:44;;;;;;;20.45;3.40;;;;;;;;;;5083681;28;20055;-73
2023/01/10 07:27:10;;;;;;;20.20;3.92;;;;;;;;;;5085371;28;20078;-74
2023/01/10 07:29:36;;;;;;;28.35;4.60;;;;;;;;;;5081864;28;20079;-74
2023/01/10 07:32:04;;;;;;;27.80;3.90;;;;;;;;;;5082498;28;20060;-74
2023/01/10 07:34:30;;;;;;;22.15;3.92;;;;;;;;;;5083604;28;20059;-75
2023/01/10 07:36:56;;;;;;;23.42;3.60;;;;;;;;;;5082803;28;20102;-74
2023/01/10 07:39:23;;;;;;;22.48;4.22;;;;;;;;;;5086053;28;20054;-73
2023/01/10 07:41:49;;;;;;;20.20;3.75;;;;;;;;;;5086515;28;20064;-74
2023/01/10 07:44:16;;;;;;;12.40;2.80;;;;;;;;;;5080708;28;20049;-74
2023/01/10 07:46:42;;;;;;;17.15;3.05;;;;;;;;;;5085170;28;20044;-75
2023/01/10 07:49:09;;;;;;;21.13;4.65;;;;;;;;;;5086279;28;20502;-72
2023/01/10 07:51:35;;;;;;;25.08;5.40;;;;;;;;;;5085377;28;20053;-73
2023/01/10 07:54:02;;;;;;;25.42;3.53;;;;;;;;;;5087700;28;20135;-71
2023/01/10 07:56:29;;;;;;;27.42;4.30;;;;;;;;;;5087101;28;20055;-73
2023/01/10 07:58:55;;;;;;;23.40;4.22;;;;;;;;;;5082741;28;20522;-72
2023/01/10 08:01:23;;;;;;;12.93;3.08;;;;;;;;;;5085900;28;20057;-73
2023/01/10 08:03:50;;;;;;;19.55;5.47;;;;;;;;;;5084578;28;20491;-75
2023/01/10 08:06:16;;;;;;;24.45;3.63;;;;;;;;;;5085648;28;20451;-72
2023/01/10 08:08:42;;;;;;;14.90;4.50;;;;;;;;;;5087057;28;20110;-71
2023/01/10 08:11:09;;;;;;;23.88;3.95;;;;;;;;;;5084490;28;20049;-75
2023/01/10 08:13:35;;;;;;;22.95;4.95;;;;;;;;;;5084662;28;20288;-73
2023/01/10 08:16:05;;;;;;;29.20;4.68;;;;;;;;;;5085522;28;20048;-74
2023/01/10 08:18:31;;;;;;;22.73;5.13;;;;;;;;;;5086289;28;20140;-70
2023/01/10 08:20:59;;;;;;;19.73;5.13;;;;;;;;;;5068358;28;20106;-72
2023/01/10 08:23:26;;;;;;;17.23;4.45;;;;;;;;;;5084876;28;20128;-75
2023/01/10 08:25:53;;;;;;;22.20;4.47;;;;;;;;;;5085030;28;20079;-73
2023/01/10 08:28:19;;;;;;;27.50;5.18;;;;;;;;;;5084056;28;20059;-75
2023/01/10 08:30:45;;;;;;;20.83;4.40;;;;;;;;;;5082398;28;20048;-74
2023/01/10 08:33:15;;;;;;;21.35;4.78;;;;;;;;;;5066725;28;20054;-74
2023/01/10 08:35:42;;;;;;;21.88;4.90;;;;;;;;;;5084444;28;20048;-73
2023/01/10 08:38:09;;;;;;;13.20;4.03;;;;;;;;;;5085506;28;20083;-74
2023/01/10 08:40:36;;;;;;;25.75;5.65;;;;;;;;;;5084774;28;20053;-71
2023/01/10 08:43:03;;;;;;;24.95;4.82;;;;;;;;;;5085356;28;20849;-75
2023/01/10 08:45:30;;;;;;;14.32;3.95;;;;;;;;;;5084218;28;20143;-70
2023/01/10 08:47:56;;;;;;;28.33;6.07;;;;;;;;;;5078345;28;20593;-74
2023/01/10 08:50:23;;;;;;;16.15;4.85;;;;;;;;;;5082680;28;20053;-70
2023/01/10 08:52:50;;;;;;;22.42;5.35;;;;;;;;;;5084758;28;20148;-73
2023/01/10 08:55:17;;;;;;;21.67;5.00;;;;;;;;;;5085143;28;20049;-71
2023/01/10 08:57:43;;;;;;;28.08;5.13;;;;;;;;;;5083957;28;20481;-73
2023/01/10 09:00:11;;;;;;;29.77;5.00;;;;;;;;;;5082583;28;20056;-75
2023/01/10 09:02:40;;;;;;;16.90;4.28;;;;;;;;;;5044285;28;1104954;-70
2023/01/10 09:05:07;;;;;;;14.70;4.60;;;;;;;;;;5084585;28;20048;-73
2023/01/10 09:07:51;;;;;;;18.67;4.80;;;;;;;;;;5084420;28;20155;-74
2023/01/10 09:10:17;;;;;;;21.73;4.20;;;;;;;;;;5085605;28;20049;-72
2023/01/10 09:12:58;;;;;;;19.52;4.43;;;;;;;;;;5085697;28;20049;-74
2023/01/10 09:15:25;;;;;;;17.10;5.47;;;;;;;;;;5083323;28;20041;-73
2023/01/10 09:17:53;;;;;;;20.13;4.18;;;;;;;;;;5084410;28;20615;-73
2023/01/10 09:20:20;;;;;;;22.02;5.07;;;;;;;;;;5085410;28;20512;-74
2023/01/10 09:22:46;;;;;;;19.48;4.57;;;;;;;;;;5084395;28;20135;-75
2023/01/10 09:25:13;;;;;;;29.58;5.45;;;;;;;;;;5084155;28;20502;-72
2023/01/10 09:27:39;;;;;;;32.83;5.15;;;;;;;;;;5080479;28;20045;-74
2023/01/10 09:30:06;;;;;;;19.25;6.35;;;;;;;;;;5084148;28;20053;-73
2023/01/10 09:32:32;;;;;;;24.58;7.32;;;;;;;;;;5085801;28;20098;-75
2023/01/10 09:34:58;;;;;;;27.33;5.25;;;;;;;;;;5085947;28;20040;-74
2023/01/10 09:37:24;;;;;;;25.98;5.22;;;;;;;;;;5085134;28;20056;-74
2023/01/10 09:39:51;;;;;;;18.67;4.78;;;;;;;;;;5083141;28;20053;-73
2023/01/10 09:42:27;;;;;;;19.63;4.45;;;;;;;;;;5085346;28;20457;-74
2023/01/10 09:45:12;;;;;;;23.17;6.10;;;;;;;;;;5085948;28;20318;-72
2023/01/10 09:47:42;;;;;;;24.05;4.88;;;;;;;;;;5085888;28;20049;-75
2023/01/10 09:50:28;;;;;;;17.98;5.15;;;;;;;;;;5084161;28;20052;-74
2023/01/10 09:53:12;;;;;;;24.60;4.85;;;;;;;;;;5085356;28;20056;-73
2023/01/10 09:55:40;;;;;;;23.92;4.32;;;;;;;;;;5074390;28;20057;-74
2023/01/10 09:58:10;;;;;;;23.48;6.38;;;;;;;;;;5075324;28;20052;-75
2023/01/10 10:00:51;;;;;;;22.85;5.10;;;;;;;;;;5082641;28;20044;-74
2023/01/10 10:03:22;;;;;;;12.30;4.05;;;;;;;;;;5081396;28;20045;-74
2023/01/10 10:05:49;;;;;;;28.35;7.00;;;;;;;;;;5081191;28;20044;-72
2023/01/10 10:08:18;;;;;;;29.85;5.53;;;;;;;;;;5084902;28;20061;-71
2023/01/10 10:11:00;;;;;;;22.63;5.63;;;;;;;;;;5082972;28;20308;-75
2023/01/10 10:13:46;;;;;;;15.30;4.80;;;;;;;;;;5074689;28;20064;-74
2023/01/10 10:16:31;;;;;;;18.67;4.22;;;;;;;;;;5083567;28;20458;-72
2023/01/10 10:19:02;;;;;;;21.05;5.22;;;;;;;;;;5082440;28;20518;-73
2023/01/10 10:21:38;;;;;;;22.27;6.60;;;;;;;;;;5084887;28;20072;-75
2023/01/10 10:24:04;;;;;;;18.88;5.72;;;;;;;;;;5084385;28;20049;-72
2023/01/10 10:26:35;;;;;;;19.85;4.82;;;;;;;;;;5085280;28;20052;-75
2023/01/10 10:29:20;;;;;;;18.77;3.70;;;;;;;;;;5061895;28;20057;-71
2023/01/10 10:31:49;;;;;;;19.88;3.25;;;;;;;;;;5083264;28;20044;-75
2023/01/10 10:34:22;;;;;;;14.45;3.50;;;;;;;;;;5084469;28;20515;-74
2023/01/10 10:36:51;;;;;;;26.58;4.00;;;;;;;;;;5084430;28;20087;-70
2023/01/10 10:39:21;;;;;;;22.45;4.10;;;;;;;;;;5084551;28;20051;-77
2023/01/10 10:41:51;;;;;;;21.48;3.75;;;;;;;;;;5083310;28;20076;-75
2023/01/10 10:44:30;;;;;;;17.60;3.10;;;;;;;;;;5079216;28;20048;-75
2023/01/10 10:46:56;;;;;;;15.40;3.13;;;;;;;;;;5080520;28;20463;-75
2023/01/10 10:49:32;;;;;;;19.67;3.78;;;;;;;;;;5081387;28;20542;-72
2023/01/10 10:51:59;;;;;;;14.75;3.13;;;;;;;;;;5083056;28;20469;-73
2023/01/10 10:54:26;;;;;;;17.23;3.00;;;;;;;;;;5084067;28;20080;-72
2023/01/10 10:56:57;;;;;;;17.92;4.15;;;;;;;;;;5083206;28;20052;-75
2023/01/10 10:59:23;;;;;;;21.20;6.30;;;;;;;;;;5083838;28;20083;-74
2023/01/10 11:01:50;;;;;;;20.70;3.90;;;;;;;;;;5084652;28;20507;-74
2023/01/10 11:04:21;;;;;;;18.00;4.40;;;;;;;;;;5082548;28;20048;-70
2023/01/10 11:06:48;;;;;;;18.00;3.75;;;;;;;;;;5082281;28;20056;-73
2023/01/10 11:09:25;;;;;;;16.45;4.35;;;;;;;;;;5080808;28;20516;-73
2023/01/10 11:11:53;;;;;;;19.50;3.60;;;;;;;;;;5082351;28;20057;-73
2023/01/10 11:14:42;;;;;;;19.35;4.72;;;;;;;;;;5076941;28;20553;-73
2023/01/10 11:17:26;;;;;;;14.77;3.35;;;;;;;;;;5078704;28;20139;-71
2023/01/10 11:20:13;;;;;;;22.60;6.55;;;;;;;;;;5081800;28;20490;-75
2023/01/10 11:22:49;;;;;;;16.52;3.83;;;;;;;;;;5082057;28;20087;-75
2023/01/10 11:25:17;;;;;;;18.00;4.25;;;;;;;;;;5082729;28;20057;-73
2023/01/10 11:27:48;;;;;;;19.63;3.70;;;;;;;;;;5084473;28;20139;-74
2023/01/10 11:30:17;;;;;;;18.35;3.70;;;;;;;;;;5082879;28;20052;-73
2023/01/10 11:32:50;;;;;;;19.55;4.05;;;;;;;;;;5081305;28;20107;-73
2023/01/10 11:35:19;;;;;;;12.75;2.92;;;;;;;;;;5082012;28;20055;-74
2023/01/10 11:37:57;;;;;;;24.40;4.22;;;;;;;;;;5082971;28;20114;-71
2023/01/10 11:40:25;;;;;;;17.40;3.85;;;;;;;;;;5062435;28;20063;-75
2023/01/10 11:42:53;;;;;;;18.92;3.80;;;;;;;;;;5079926;28;20047;-74
2023/01/10 11:45:20;;;;;;;12.85;2.78;;;;;;;;;;5082329;28;20106;-70
2023/01/10 11:47:55;;;;;;;17.50;2.92;;;;;;;;;;5080229;28;20060;-74
2023/01/10 11:50:30;;;;;;;9.30;3.38;;;;;;;;;;5083669;28;20529;-73
2023/01/10 11:52:57;;;;;;;15.20;3.42;;;;;;;;;;5076219;28;20049;-72
2023/01/10 11:55:28;;;;;;;15.95;3.53;;;;;;;;;;5062390;28;20056;-75
2023/01/10 11:57:54;;;;;;;20.58;4.00;;;;;;;;;;5064025;28;20080;-74
2023/01/10 12:00:21;;;;;;;19.48;3.80;;;;;;;;;;5081643;28;20250;-74
2023/01/10 12:02:49;;;;;;;18.10;4.28;;;;;;;;;;5087472;28;20063;-75
2023/01/10 12:05:20;;;;;;;12.32;3.03;;;;;;;;;;5081584;28;20465;-76
2023/01/10 12:07:57;;;;;;;15.13;3.08;;;;;;;;;;5083052;28;20052;-74
2023/01/10 12:10:25;;;;;;;15.15;4.38;;;;;;;;;;5063780;28;20443;-76
2023/01/10 12:12:52;;;;;;;14.80;3.08;;;;;;;;;;5081199;28;20121;-70
2023/01/10 12:15:29;;;;;;;18.25;3.00;;;;;;;;;;5082072;28;20465;-74
2023/01/10 12:18:00;;;;;;;15.65;3.50;;;;;;;;;;5080684;28;20161;-73
2023/01/10 12:20:31;;;;;;;16.33;3.38;;;;;;;;;;5082439;28;20049;-75
2023/01/10 12:23:04;;;;;;;18.48;3.38;;;;;;;;;;5083567;28;20136;-74
2023/01/10 12:25:35;;;;;;;15.95;3.72;;;;;;;;;;5075356;28;20583;-77
2023/01/10 12:28:02;;;;;;;16.15;3.22;;;;;;;;;;5086580;28;20041;-76
2023/01/10 12:30:37;;;;;;;15.50;2.72;;;;;;;;;;5083954;28;20435;-76
2023/01/10 12:33:13;;;;;;;16.15;3.35;;;;;;;;;;5064956;28;20047;-70
2023/01/10 12:35:42;;;;;;;20.00;3.25;;;;;;;;;;5077188;28;20096;-76
2023/01/10 12:44:10;;;;;;;19.52;5.45;;;;;;;;;;5083996;28;20057;-76
2023/01/10 12:44:13;;;;;;;21.73;3.70;;;;;;;;;;5084835;28;20525;-70
2023/01/10 12:46:40;;;;;;;11.13;3.65;;;;;;;;;;5085652;28;20434;-74
2023/01/10 12:49:26;;;;;;;17.58;2.72;;;;;;;;;;5084720;28;20063;-75
2023/01/10 12:51:54;;;;;;;15.10;3.72;;;;;;;;;;5084987;28;20059;-75
2023/01/10 12:54:22;;;;;;;15.18;3.30;;;;;;;;;;5085395;28;20060;-75
2023/01/10 12:56:49;;;;;;;13.48;3.22;;;;;;;;;;5083627;28;20060;-73
2023/01/10 12:59:20;;;;;;;12.82;3.17;;;;;;;;;;5084597;28;20048;-73
2023/01/10 13:02:03;;;;;;;14.90;3.00;;;;;;;;;;5085686;28;20148;-71
2023/01/10 13:04:33;;;;;;;28.67;5.00;;;;;;;;;;5088534;28;20056;-72
2023/01/10 13:07:00;;;;;;;12.68;3.05;;;;;;;;;;5082753;28;20155;-74
2023/01/10 13:09:27;;;;;;;20.90;3.35;;;;;;;;;;5081062;28;20087;-72
2023/01/10 13:11:56;;;;;;;15.25;3.20;;;;;;;;;;5085086;28;20067;-73
2023/01/10 13:14:25;;;;;;;15.50;3.08;;;;;;;;;;5072660;28;20554;-74
2023/01/10 13:16:54;;;;;;;12.68;2.90;;;;;;;;;;5084255;28;20057;-72
2023/01/10 13:19:23;;;;;;;17.40;3.13;;;;;;;;;;5083002;28;20488;-72
2023/01/10 13:21:51;;;;;;;15.02;3.28;;;;;;;;;;5084031;28;20601;-74
2023/01/10 13:24:21;;;;;;;15.35;2.50;;;;;;;;;;5085826;28;20102;-77
2023/01/10 13:26:48;;;;;;;15.35;3.33;;;;;;;;;;5083458;28;20048;-73
2023/01/10 13:29:17;;;;;;;23.13;3.53;;;;;;;;;;5083558;28;20548;-70
2023/01/10 13:31:43;;;;;;;11.35;2.83;;;;;;;;;;5080631;28;20056;-69
2023/01/10 13:34:12;;;;;;;12.40;2.63;;;;;;;;;;5083606;28;20912;-72
2023/01/10 13:36:43;;;;;;;12.88;2.78;;;;;;;;;;5065673;28;20063;-75
2023/01/10 13:39:20;;;;;;;14.15;3.20;;;;;;;;;;5084381;28;20048;-73
2023/01/10 13:44:59;;;;;;;18.58;3.80;;;;;;;;;;5085198;28;20575;-73
2023/01/10 13:47:37;;;;;;;13.65;3.20;;;;;;;;;;5081403;28;20087;-73
2023/01/10 13:50:22;;;;;;;18.10;3.55;;;;;;;;;;5081048;28;20392;-72
2023/01/10 13:53:05;;;;;;;15.18;3.55;;;;;;;;;;5083074;28;20055;-73
2023/01/10 13:55:35;;;;;;;19.10;3.88;;;;;;;;;;5078437;28;20549;-72
2023/01/10 13:58:01;;;;;;;14.05;3.08;;;;;;;;;;5083789;28;20135;-74
2023/01/10 14:03:38;;;;;;;11.25;3.28;;;;;;;;;;5090488;28;20760;-75
2023/01/10 14:06:17;;;;;;;16.50;3.28;;;;;;;;;;5080231;28;20052;-69
2023/01/10 14:08:51;;;;;;;13.98;3.70;;;;;;;;;;5083828;28;20063;-71
2023/01/10 14:11:19;;;;;;;15.70;3.38;;;;;;;;;;5083057;28;20052;-75
2023/01/10 14:13:51;;;;;;;15.85;3.33;;;;;;;;;;5083855;28;20048;-72
2023/01/10 14:16:36;;;;;;;13.43;3.58;;;;;;;;;;5077356;28;20098;-75
2023/01/10 14:19:05;;;;;;;13.52;2.60;;;;;;;;;;5083650;28;20059;-74
2023/01/10 14:21:35;;;;;;;13.80;2.63;;;;;;;;;;5083372;28;20040;-74
2023/01/10 14:24:01;;;;;;;13.95;3.10;;;;;;;;;;5082686;28;20424;-74
2023/01/10 14:26:39;;;;;;;13.23;3.10;;;;;;;;;;5082503;28;20060;-73
2023/01/10 14:29:08;;;;;;;11.40;2.47;;;;;;;;;;5084596;28;20059;-74
2023/01/10 14:31:36;;;;;;;21.30;3.08;;;;;;;;;;5082818;28;20055;-71
2023/01/10 14:34:08;;;;;;;22.98;4.30;;;;;;;;;;5073556;28;20076;-72
2023/01/10 14:36:50;;;;;;;14.10;3.17;;;;;;;;;;5071414;28;20608;-71
2023/01/10 14:39:17;;;;;;;16.30;3.28;;;;;;;;;;5080067;28;20053;-75
2023/01/10 14:41:46;;;;;;;13.18;3.53;;;;;;;;;;5082328;28;20055;-72
2023/01/10 14:44:16;;;;;;;18.40;3.63;;;;;;;;;;5080032;28;20095;-69
2023/01/10 14:46:44;;;;;;;17.15;3.78;;;;;;;;;;5080969;28;20080;-76
2023/01/10 14:49:43;;;;;;;12.90;3.35;;;;;;;;;;5080855;28;20052;-76
2023/01/10 14:52:11;;;;;;;21.75;3.58;;;;;;;;;;5035275;28;20048;-70
2023/01/10 14:54:38;;;;;;;16.08;3.05;;;;;;;;;;5081683;28;20407;-72
2023/01/10 14:57:14;;;;;;;19.73;3.83;;;;;;;;;;5079680;28;20150;-71
2023/01/10 14:59:40;;;;;;;14.80;3.30;;;;;;;;;;5081964;28;20052;-70
2023/01/10 15:02:20;;;;;;;15.63;3.15;;;;;;;;;;5080083;28;20057;-74